Time;durP1;ratioP1;P1;durP2;ratioP2;P2;SDS_P1;SDS_P2;PMS_P1;PMS_P2;Temp;Humidity;BMP_temperature;BMP_pressure;BME280_temperature;BME280_humidity;BME280_pressure;Samples;Min_cycle;Max_cycle;Signal;HPM_P1;HPM_P2
2024/03/27 00:02:05;;;;;;;3.15;2.95;;;10.70;99.90;;;;;;4953296;29;20034;-77
2024/03/27 00:04:31;;;;;;;2.95;2.83;;;10.70;99.90;;;;;;4952094;29;20040;-77
2024/03/27 00:06:57;;;;;;;3.80;3.50;;;10.70;99.90;;;;;;4953082;29;20028;-77
2024/03/27 00:09:23;;;;;;;4.03;3.72;;;10.70;99.90;;;;;;4936433;29;20050;-77
2024/03/27 00:11:50;;;;;;;4.65;3.63;;;10.70;99.90;;;;;;4951963;29;20031;-77
2024/03/27 00:14:16;;;;;;;3.63;3.33;;;10.70;99.90;;;;;;4947463;29;20019;-77
2024/03/27 00:16:44;;;;;;;4.40;4.05;;;10.70;99.90;;;;;;4945869;29;20035;-77
2024/03/27 00:19:13;;;;;;;4.43;4.13;;;10.80;99.90;;;;;;4951435;29;20038;-77
2024/03/27 00:21:42;;;;;;;8.23;5.10;;;10.70;99.90;;;;;;4951482;29;20033;-77
2024/03/27 00:24:07;;;;;;;5.80;5.38;;;10.70;99.90;;;;;;4951709;29;20503;-77
2024/03/27 00:26:33;;;;;;;6.05;5.65;;;10.70;99.90;;;;;;4951921;29;20027;-77
2024/03/27 00:28:59;;;;;;;5.95;5.43;;;10.70;99.90;;;;;;4950061;29;20023;-77
2024/03/27 00:31:28;;;;;;;6.72;6.05;;;10.70;99.90;;;;;;4935919;29;20032;-77
2024/03/27 00:33:54;;;;;;;8.43;6.28;;;10.70;99.90;;;;;;4952942;29;20035;-77
2024/03/27 00:36:19;;;;;;;7.93;6.82;;;10.70;99.90;;;;;;4952830;29;20074;-77
2024/03/27 00:38:45;;;;;;;7.82;6.95;;;10.70;99.90;;;;;;4953041;28;20106;-77
2024/03/27 00:41:11;;;;;;;9.88;7.55;;;10.70;99.90;;;;;;4956857;29;20376;-77
2024/03/27 00:43:37;;;;;;;8.30;7.45;;;10.80;99.90;;;;;;4956468;29;20523;-77
2024/03/27 00:46:06;;;;;;;8.52;7.13;;;10.80;99.90;;;;;;4939597;29;20028;-77
2024/03/27 00:48:32;;;;;;;9.63;7.25;;;10.70;99.90;;;;;;4956657;29;20030;-77
2024/03/27 00:50:59;;;;;;;5.18;4.72;;;10.60;99.90;;;;;;4956621;29;20019;-77
2024/03/27 00:53:25;;;;;;;5.13;4.80;;;10.60;99.90;;;;;;4956758;29;20494;-77
2024/03/27 00:55:59;;;;;;;5.30;4.93;;;10.50;99.90;;;;;;4956556;29;20027;-77
2024/03/27 00:58:25;;;;;;;5.20;4.80;;;10.50;99.90;;;;;;4956437;29;20035;-77
2024/03/27 01:00:50;;;;;;;4.95;4.55;;;10.50;99.90;;;;;;4952849;29;20027;-77
2024/03/27 01:03:17;;;;;;;5.00;4.60;;;10.60;99.90;;;;;;4939056;29;20054;-77
2024/03/27 01:05:43;;;;;;;4.78;4.47;;;10.60;99.90;;;;;;4956197;29;20482;-77
2024/03/27 01:08:09;;;;;;;4.57;4.28;;;10.60;99.90;;;;;;4956295;29;20042;-77
2024/03/27 01:10:37;;;;;;;4.78;4.47;;;10.70;99.90;;;;;;4956204;29;20023;-77
2024/03/27 01:13:03;;;;;;;4.80;4.40;;;10.70;99.90;;;;;;4956305;29;20023;-77
2024/03/27 01:15:29;;;;;;;3.67;3.47;;;10.70;99.90;;;;;;4956234;29;20023;-77
2024/03/27 01:17:58;;;;;;;4.28;3.92;;;10.70;99.90;;;;;;4938823;29;20542;-77
2024/03/27 01:20:24;;;;;;;4.15;3.75;;;10.70;99.90;;;;;;4956165;29;20376;-77
2024/03/27 01:22:50;;;;;;;3.88;3.53;;;10.70;99.90;;;;;;4955922;29;20058;-77
2024/03/27 01:25:15;;;;;;;4.75;3.80;;;10.70;99.90;;;;;;4955993;29;20031;-77
2024/03/27 01:27:41;;;;;;;3.60;3.30;;;10.70;99.90;;;;;;4955906;29;20394;-77
2024/03/27 01:30:07;;;;;;;4.35;4.05;;;10.70;99.90;;;;;;4955943;29;20023;-77
2024/03/27 01:32:34;;;;;;;4.90;4.47;;;10.70;99.90;;;;;;4938657;29;20038;-77
2024/03/27 01:35:00;;;;;;;3.90;3.58;;;10.70;99.90;;;;;;4954009;29;20099;-77
2024/03/27 01:37:25;;;;;;;4.45;4.15;;;10.70;99.90;;;;;;4955681;29;20059;-77
2024/03/27 01:39:54;;;;;;;4.25;3.80;;;10.60;99.90;;;;;;4955741;29;20073;-77
2024/03/27 01:42:20;;;;;;;5.00;4.22;;;10.60;99.90;;;;;;4947962;29;20035;-77
2024/03/27 01:44:46;;;;;;;4.70;3.72;;;10.60;99.90;;;;;;4938281;29;20147;-77
2024/03/27 01:47:11;;;;;;;4.03;3.72;;;10.60;99.90;;;;;;4938327;29;20031;-77
2024/03/27 01:49:39;;;;;;;3.50;3.22;;;10.60;99.90;;;;;;4937606;28;20083;-77
2024/03/27 01:52:06;;;;;;;2.70;2.60;;;10.60;99.90;;;;;;4955610;29;20484;-77
2024/03/27 01:54:32;;;;;;;3.47;3.20;;;10.60;99.90;;;;;;4938186;29;20035;-77
2024/03/27 01:56:59;;;;;;;2.55;2.40;;;10.50;99.90;;;;;;4950520;29;20524;-76
2024/03/27 01:59:25;;;;;;;3.05;2.80;;;10.60;99.90;;;;;;4953716;29;20046;-76
2024/03/27 02:01:52;;;;;;;3.13;2.80;;;10.50;99.90;;;;;;4955416;29;20116;-77
2024/03/27 02:04:19;;;;;;;2.67;2.20;;;10.50;99.90;;;;;;4955308;29;20027;-77
2024/03/27 02:06:45;;;;;;;2.75;2.42;;;10.50;99.90;;;;;;4955107;29;20031;-76
2024/03/27 02:09:10;;;;;;;6.88;2.72;;;10.40;99.90;;;;;;4955308;29;20102;-77
2024/03/27 02:11:37;;;;;;;2.40;2.20;;;10.40;99.90;;;;;;4955189;29;20058;-77
2024/03/27 02:14:02;;;;;;;2.50;2.40;;;10.40;99.90;;;;;;4937885;29;20399;-76
2024/03/27 02:16:28;;;;;;;2.50;2.40;;;10.40;99.90;;;;;;4955122;29;20031;-77
2024/03/27 02:18:54;;;;;;;2.60;2.45;;;10.40;99.90;;;;;;4955113;29;20367;-77
2024/03/27 02:21:20;;;;;;;5.35;2.15;;;10.40;99.90;;;;;;4955030;29;20054;-77
2024/03/27 02:23:57;;;;;;;2.30;2.10;;;10.40;99.90;;;;;;4928574;29;20062;-77
2024/03/27 02:26:35;;;;;;;3.50;2.00;;;10.40;99.90;;;;;;4954780;29;20050;-77
2024/03/27 02:29:01;;;;;;;3.58;2.17;;;10.30;99.90;;;;;;4954874;29;20115;-77
2024/03/27 02:31:28;;;;;;;2.30;2.20;;;10.40;99.90;;;;;;4955022;29;20053;-77
2024/03/27 02:33:53;;;;;;;1.95;1.85;;;10.50;99.90;;;;;;4937336;29;20045;-77
2024/03/27 02:36:19;;;;;;;2.75;2.30;;;10.50;99.90;;;;;;4937425;29;20130;-77
2024/03/27 02:38:45;;;;;;;3.00;2.80;;;10.50;99.90;;;;;;4954733;29;20027;-77
2024/03/27 02:41:10;;;;;;;3.10;2.58;;;10.50;99.90;;;;;;4954783;29;20031;-77
2024/03/27 02:43:36;;;;;;;3.63;2.92;;;10.50;99.90;;;;;;4954524;29;20061;-77
2024/03/27 02:46:02;;;;;;;3.63;3.42;;;10.50;99.90;;;;;;4954505;29;20228;-77
2024/03/27 02:48:28;;;;;;;3.47;3.28;;;10.40;99.90;;;;;;4954423;29;20027;-77
2024/03/27 02:50:53;;;;;;;4.63;3.17;;;10.30;99.90;;;;;;4954553;29;20027;-77
2024/03/27 02:53:19;;;;;;;3.70;3.35;;;10.20;99.90;;;;;;4937159;29;20052;-76
2024/03/27 02:55:45;;;;;;;3.00;2.80;;;10.10;99.90;;;;;;4954383;29;20019;-77
2024/03/27 02:58:11;;;;;;;2.90;2.70;;;10.20;99.90;;;;;;4954400;29;20077;-77
2024/03/27 03:00:36;;;;;;;2.47;2.10;;;10.20;99.90;;;;;;4937020;29;20054;-76
2024/03/27 03:03:05;;;;;;;4.20;2.15;;;10.20;99.90;;;;;;4936215;29;20507;-76
2024/03/27 03:05:31;;;;;;;3.83;2.13;;;10.20;99.90;;;;;;4954070;29;20166;-77
2024/03/27 03:07:57;;;;;;;2.42;2.22;;;10.20;99.90;;;;;;4954158;29;20122;-77
2024/03/27 03:10:22;;;;;;;2.13;2.03;;;10.20;99.90;;;;;;4954180;29;20099;-77
2024/03/27 03:12:48;;;;;;;2.80;2.60;;;10.20;99.90;;;;;;4954141;29;20027;-77
2024/03/27 03:15:14;;;;;;;2.72;2.53;;;10.20;99.90;;;;;;4954107;29;20038;-76
2024/03/27 03:17:39;;;;;;;2.72;2.53;;;10.20;99.90;;;;;;4953850;29;20067;-77
2024/03/27 03:20:06;;;;;;;2.38;2.17;;;10.20;99.90;;;;;;4936680;29;20122;-77
2024/03/27 03:22:33;;;;;;;2.92;2.08;;;10.30;99.90;;;;;;4936717;29;20035;-76
2024/03/27 03:25:02;;;;;;;2.25;2.05;;;10.20;99.90;;;;;;4953766;29;20059;-77
2024/03/27 03:27:28;;;;;;;4.43;2.25;;;10.30;99.90;;;;;;4936027;29;20027;-76
2024/03/27 03:29:53;;;;;;;2.38;2.17;;;10.30;99.90;;;;;;4932723;29;20392;-77
2024/03/27 03:32:19;;;;;;;2.17;2.03;;;10.30;99.90;;;;;;4953675;29;20031;-77
2024/03/27 03:34:45;;;;;;;2.05;1.95;;;10.30;99.90;;;;;;4953539;29;20051;-77
2024/03/27 03:37:10;;;;;;;2.40;2.20;;;10.30;99.90;;;;;;4953508;29;20035;-77
2024/03/27 03:39:36;;;;;;;2.10;2.00;;;10.30;99.90;;;;;;4953685;29;20447;-77
2024/03/27 03:42:03;;;;;;;2.78;2.20;;;10.30;99.90;;;;;;4953529;29;20045;-77
2024/03/27 03:44:29;;;;;;;2.97;2.13;;;10.30;99.90;;;;;;4953585;29;20038;-77
2024/03/27 03:46:55;;;;;;;2.08;1.98;;;10.30;99.90;;;;;;4953201;29;20023;-77
2024/03/27 03:49:21;;;;;;;2.25;2.15;;;10.30;99.90;;;;;;4949696;29;20029;-76
2024/03/27 03:51:47;;;;;;;2.95;2.10;;;10.30;99.90;;;;;;4950317;29;20040;-77
2024/03/27 03:54:12;;;;;;;2.55;2.42;;;10.30;99.90;;;;;;4949703;29;20027;-77
2024/03/27 03:56:38;;;;;;;3.25;3.08;;;10.30;99.90;;;;;;4953301;29;20372;-77
2024/03/27 03:59:05;;;;;;;3.35;3.10;;;10.30;99.90;;;;;;4950225;29;20167;-77
2024/03/27 04:01:31;;;;;;;3.42;3.22;;;10.40;99.90;;;;;;4953282;29;20023;-77
2024/03/27 04:03:57;;;;;;;4.20;3.90;;;10.40;99.90;;;;;;4936081;29;20094;-77
2024/03/27 04:06:24;;;;;;;4.68;4.32;;;10.40;99.90;;;;;;4953187;29;20109;-77
2024/03/27 04:08:50;;;;;;;4.80;4.50;;;10.50;99.90;;;;;;4953126;29;20031;-77
2024/03/27 04:11:16;;;;;;;4.88;4.43;;;10.50;99.90;;;;;;4953227;29;20022;-76
2024/03/27 04:13:42;;;;;;;4.50;4.13;;;10.40;99.90;;;;;;4953133;29;20383;-77
2024/03/27 04:16:09;;;;;;;5.65;5.35;;;10.30;99.90;;;;;;4953151;29;20026;-77
2024/03/27 04:18:35;;;;;;;5.28;4.75;;;10.30;99.90;;;;;;4935761;29;20026;-77
2024/03/27 04:21:04;;;;;;;4.70;4.40;;;10.20;99.90;;;;;;4952854;29;20040;-77
2024/03/27 04:23:30;;;;;;;4.93;4.15;;;10.20;99.90;;;;;;4948366;29;20106;-77
2024/03/27 04:25:55;;;;;;;4.05;3.80;;;10.20;99.90;;;;;;4952983;29;20103;-77
2024/03/27 04:28:21;;;;;;;3.85;3.65;;;10.20;99.90;;;;;;4953078;29;20032;-77
2024/03/27 04:30:47;;;;;;;3.78;3.45;;;10.20;99.90;;;;;;4952270;29;20551;-77
2024/03/27 04:33:12;;;;;;;3.88;3.67;;;10.20;99.90;;;;;;4953058;29;20078;-77
2024/03/27 04:35:39;;;;;;;3.30;3.10;;;10.20;99.90;;;;;;4952864;29;20066;-77
2024/03/27 04:38:05;;;;;;;3.33;3.13;;;10.20;99.90;;;;;;4953004;29;20059;-77
2024/03/27 04:40:31;;;;;;;3.30;3.10;;;10.30;99.90;;;;;;4952863;29;20033;-77
2024/03/27 04:42:57;;;;;;;3.00;2.80;;;10.30;99.90;;;;;;4933892;29;20027;-77
2024/03/27 04:45:23;;;;;;;2.30;2.20;;;10.30;99.90;;;;;;4935439;29;20118;-77
2024/03/27 04:47:49;;;;;;;2.33;2.22;;;10.30;99.90;;;;;;4952884;29;20035;-77
2024/03/27 04:50:15;;;;;;;3.17;1.83;;;10.20;99.90;;;;;;4935493;29;20546;-76
2024/03/27 04:52:40;;;;;;;2.20;2.00;;;10.30;99.90;;;;;;4953083;29;20106;-76
2024/03/27 04:55:06;;;;;;;2.20;2.00;;;10.20;99.90;;;;;;4952826;29;20031;-76
2024/03/27 04:57:32;;;;;;;1.92;1.60;;;10.20;99.90;;;;;;4944932;29;20035;-76
2024/03/27 04:59:58;;;;;;;1.42;1.33;;;10.20;99.90;;;;;;4952604;29;20035;-77
2024/03/27 05:02:24;;;;;;;1.95;1.85;;;10.30;99.90;;;;;;4952747;29;20071;-77
2024/03/27 05:04:50;;;;;;;1.90;1.67;;;10.30;99.90;;;;;;4952636;29;20094;-77
2024/03/27 05:07:16;;;;;;;1.42;1.40;;;10.40;99.90;;;;;;4952554;29;20106;-76
2024/03/27 05:09:42;;;;;;;1.35;1.35;;;10.40;99.90;;;;;;4935522;29;20039;-77
2024/03/27 05:12:08;;;;;;;1.73;1.30;;;10.40;99.90;;;;;;4952746;29;20038;-76
2024/03/27 05:14:33;;;;;;;1.23;1.13;;;10.50;99.90;;;;;;4948514;29;20399;-76
2024/03/27 05:16:59;;;;;;;2.47;1.20;;;10.50;99.90;;;;;;4952649;29;20059;-76
2024/03/27 05:19:25;;;;;;;1.27;1.17;;;10.60;99.90;;;;;;4952633;29;20028;-76
2024/03/27 05:21:52;;;;;;;1.52;1.23;;;10.60;99.90;;;;;;4935356;29;20037;-76
2024/03/27 05:24:18;;;;;;;1.02;1.02;;;10.60;99.90;;;;;;4935227;28;20039;-76
2024/03/27 05:26:46;;;;;;;1.52;1.00;;;10.60;99.90;;;;;;4955254;29;20083;-76
2024/03/27 05:29:12;;;;;;;0.88;0.80;;;10.60;99.90;;;;;;4956019;29;20038;-76
2024/03/27 05:31:57;;;;;;;4.68;0.85;;;10.70;99.90;;;;;;4938659;29;20466;-76
2024/03/27 05:34:24;;;;;;;0.70;0.70;;;10.80;99.90;;;;;;4954072;29;20051;-77
2024/03/27 05:36:49;;;;;;;0.70;0.70;;;10.80;99.90;;;;;;4955880;29;20028;-77
2024/03/27 05:39:15;;;;;;;0.47;0.47;;;10.90;99.90;;;;;;4953010;29;20027;-77
2024/03/27 05:41:44;;;;;;;0.50;0.50;;;11.00;99.90;;;;;;4955697;29;20035;-76
2024/03/27 05:44:10;;;;;;;0.88;0.70;;;11.10;99.90;;;;;;4955778;29;20062;-76
2024/03/27 05:46:37;;;;;;;0.60;0.60;;;11.10;99.90;;;;;;4955555;29;20074;-77
2024/03/27 05:49:04;;;;;;;0.65;0.65;;;11.10;99.90;;;;;;4955577;29;20448;-77
2024/03/27 05:51:31;;;;;;;0.40;0.40;;;11.20;99.90;;;;;;4936124;29;20029;-76
2024/03/27 05:53:57;;;;;;;0.43;0.43;;;11.30;99.90;;;;;;4952185;29;20479;-76
2024/03/27 05:56:24;;;;;;;1.55;0.40;;;11.40;99.90;;;;;;4955520;29;20032;-76
2024/03/27 05:58:50;;;;;;;0.85;0.50;;;11.40;99.90;;;;;;4938348;29;20023;-76
2024/03/27 06:01:16;;;;;;;0.30;0.30;;;11.40;99.90;;;;;;4955308;29;20479;-77
2024/03/27 06:03:49;;;;;;;0.52;0.40;;;11.50;99.90;;;;;;4955431;29;20106;-76
2024/03/27 06:06:15;;;;;;;1.40;0.45;;;11.50;99.90;;;;;;4951253;29;20220;-77
2024/03/27 06:08:41;;;;;;;0.93;0.65;;;11.50;99.90;;;;;;4955263;29;20102;-77
2024/03/27 06:11:07;;;;;;;0.30;0.30;;;11.50;99.90;;;;;;4955298;29;20019;-77
2024/03/27 06:13:33;;;;;;;1.27;0.50;;;11.60;99.90;;;;;;4953088;29;20495;-77
2024/03/27 06:15:59;;;;;;;0.60;0.50;;;11.70;99.90;;;;;;4955049;29;20051;-77
2024/03/27 06:18:25;;;;;;;0.30;0.30;;;11.70;99.90;;;;;;4955120;29;20384;-77
2024/03/27 06:20:51;;;;;;;0.60;0.50;;;11.80;99.90;;;;;;4954979;29;20039;-77
2024/03/27 06:23:17;;;;;;;0.40;0.40;;;11.70;99.90;;;;;;4955110;29;20023;-77
2024/03/27 06:25:54;;;;;;;0.50;0.50;;;11.90;99.90;;;;;;4954825;29;20050;-77
2024/03/27 06:28:19;;;;;;;0.32;0.30;;;11.90;99.90;;;;;;4937653;29;20023;-76
2024/03/27 06:30:45;;;;;;;0.38;0.38;;;12.00;99.90;;;;;;4953328;29;20029;-77
2024/03/27 06:33:10;;;;;;;0.55;0.50;;;12.00;99.90;;;;;;4953865;29;20432;-77
2024/03/27 06:35:40;;;;;;;1.17;0.50;;;12.10;99.90;;;;;;4954459;29;20047;-77
2024/03/27 06:38:06;;;;;;;1.25;0.63;;;12.20;99.90;;;;;;4953712;28;20023;-77
2024/03/27 06:40:32;;;;;;;0.55;0.40;;;12.30;99.90;;;;;;4954756;29;20391;-77
2024/03/27 06:42:57;;;;;;;1.77;0.50;;;12.30;99.90;;;;;;4954535;29;20110;-77
2024/03/27 06:45:23;;;;;;;2.00;0.82;;;12.40;99.90;;;;;;4954528;29;20057;-77
2024/03/27 06:47:49;;;;;;;2.58;0.70;;;12.40;99.90;;;;;;4937208;29;20476;-77
2024/03/27 06:50:14;;;;;;;1.40;0.80;;;12.40;99.90;;;;;;4954531;29;20031;-77
2024/03/27 06:52:40;;;;;;;0.82;0.60;;;12.50;99.90;;;;;;4954538;29;20098;-77
2024/03/27 06:55:06;;;;;;;0.70;0.60;;;12.50;99.90;;;;;;4954190;29;20023;-77
2024/03/27 06:57:32;;;;;;;0.80;0.70;;;12.50;99.90;;;;;;4954416;29;20062;-77
2024/03/27 06:59:58;;;;;;;1.38;0.80;;;12.60;99.90;;;;;;4937112;29;20078;-77
2024/03/27 07:02:24;;;;;;;5.40;0.82;;;12.60;99.90;;;;;;4954380;29;20399;-77
2024/03/27 07:04:51;;;;;;;1.58;0.73;;;12.60;99.90;;;;;;4954061;29;20127;-77
2024/03/27 07:07:20;;;;;;;2.08;0.90;;;12.60;99.90;;;;;;4954078;29;20042;-77
2024/03/27 07:09:46;;;;;;;2.30;0.70;;;12.70;99.90;;;;;;4947417;29;20367;-77
2024/03/27 07:12:12;;;;;;;2.22;0.88;;;12.80;99.90;;;;;;4955175;29;20031;-77
2024/03/27 07:14:37;;;;;;;1.55;0.52;;;12.70;99.90;;;;;;4939689;29;20028;-77
2024/03/27 07:17:03;;;;;;;3.08;0.85;;;12.70;99.90;;;;;;4953005;29;20027;-77
2024/03/27 07:19:28;;;;;;;1.15;0.85;;;12.70;99.90;;;;;;4953943;29;20046;-77
2024/03/27 07:21:54;;;;;;;2.20;1.10;;;12.80;99.90;;;;;;4953972;29;20043;-77
2024/03/27 07:24:20;;;;;;;4.40;1.30;;;12.80;99.90;;;;;;4953962;29;20110;-77
2024/03/27 07:26:54;;;;;;;1.10;0.77;;;12.90;99.90;;;;;;4953603;29;20086;-77
2024/03/27 07:29:20;;;;;;;1.80;1.20;;;12.90;99.90;;;;;;4952634;29;20027;-77
2024/03/27 07:31:46;;;;;;;5.78;1.15;;;12.90;99.90;;;;;;4950844;29;20131;-77
2024/03/27 07:34:12;;;;;;;4.30;1.50;;;12.80;99.90;;;;;;4951997;29;20130;-77
2024/03/27 07:36:38;;;;;;;6.47;1.50;;;12.90;99.90;;;;;;4951996;29;20057;-77
2024/03/27 07:39:05;;;;;;;4.43;1.80;;;13.00;99.90;;;;;;4952033;29;20086;-77
2024/03/27 07:41:31;;;;;;;2.25;0.95;;;13.00;99.90;;;;;;4935051;29;20031;-77
2024/03/27 07:43:56;;;;;;;5.47;1.63;;;13.00;99.90;;;;;;4949239;29;20304;-77
2024/03/27 07:46:22;;;;;;;6.60;2.58;;;12.90;99.90;;;;;;4934296;29;20082;-77
2024/03/27 07:48:49;;;;;;;6.32;2.53;;;13.00;99.90;;;;;;4953242;28;20031;-75
2024/03/27 07:51:16;;;;;;;7.78;1.70;;;13.00;99.90;;;;;;4936236;29;20046;-77
2024/03/27 07:53:41;;;;;;;3.22;1.60;;;13.00;99.90;;;;;;4936037;29;20030;-77
2024/03/27 07:56:08;;;;;;;7.15;1.80;;;13.00;99.90;;;;;;4936078;29;20403;-77
2024/03/27 07:58:33;;;;;;;6.80;1.77;;;13.20;99.90;;;;;;4952839;29;20074;-77
2024/03/27 08:00:59;;;;;;;6.10;2.10;;;13.20;99.90;;;;;;4953276;29;20102;-77
2024/03/27 08:03:28;;;;;;;7.50;2.42;;;13.30;99.90;;;;;;4953178;29;20071;-77
2024/03/27 08:05:53;;;;;;;6.10;2.50;;;13.30;99.90;;;;;;4953442;29;20334;-77
2024/03/27 08:08:20;;;;;;;4.05;2.30;;;13.30;99.90;;;;;;4953294;29;20501;-77
2024/03/27 08:10:55;;;;;;;5.32;1.90;;;13.30;99.90;;;;;;4949307;29;20476;-77
2024/03/27 08:13:21;;;;;;;7.28;1.90;;;13.30;99.90;;;;;;4936046;29;20056;-77
2024/03/27 08:15:46;;;;;;;4.55;1.70;;;13.20;99.90;;;;;;4935827;29;20065;-77
2024/03/27 08:18:12;;;;;;;5.38;2.35;;;13.20;99.90;;;;;;4953237;29;20729;-77
2024/03/27 08:20:41;;;;;;;5.28;2.33;;;13.20;99.90;;;;;;4953101;29;20038;-77
2024/03/27 08:23:07;;;;;;;3.42;1.70;;;13.20;99.90;;;;;;4953164;29;20042;-77
2024/03/27 08:25:34;;;;;;;5.28;1.80;;;13.20;99.90;;;;;;4953108;29;20035;-77
2024/03/27 08:28:00;;;;;;;19.50;3.22;;;13.30;99.90;;;;;;4953072;29;20039;-77
2024/03/27 08:30:26;;;;;;;8.98;2.08;;;13.30;99.90;;;;;;4949705;29;20541;-78
2024/03/27 08:32:52;;;;;;;5.88;2.28;;;13.30;99.90;;;;;;4951981;29;20102;-77
2024/03/27 08:35:18;;;;;;;5.93;2.63;;;13.30;99.90;;;;;;4935551;29;20126;-77
2024/03/27 08:37:44;;;;;;;4.35;2.42;;;13.40;99.90;;;;;;4953010;29;20403;-77
2024/03/27 08:40:12;;;;;;;8.32;2.15;;;13.40;99.90;;;;;;4952804;29;20034;-77
2024/03/27 08:42:38;;;;;;;6.40;1.90;;;13.40;99.90;;;;;;4935524;29;20042;-77
2024/03/27 08:45:04;;;;;;;4.40;1.77;;;13.40;99.90;;;;;;4952877;29;20027;-77
2024/03/27 08:47:30;;;;;;;4.07;1.88;;;13.40;99.90;;;;;;4952761;29;20080;-77
2024/03/27 08:49:57;;;;;;;4.30;1.95;;;13.30;99.90;;;;;;4952953;29;20393;-77
2024/03/27 08:52:22;;;;;;;2.72;1.40;;;13.30;99.90;;;;;;4952961;29;20098;-77
2024/03/27 08:54:53;;;;;;;4.72;1.33;;;13.40;99.90;;;;;;4935755;29;20557;-77
2024/03/27 08:57:19;;;;;;;3.70;1.20;;;13.40;99.90;;;;;;4952819;29;20086;-78
2024/03/27 08:59:47;;;;;;;3.33;1.48;;;13.40;99.90;;;;;;4935591;29;20487;-78
2024/03/27 09:02:16;;;;;;;2.17;1.60;;;13.30;99.90;;;;;;4935909;29;20070;-77
2024/03/27 09:04:41;;;;;;;3.95;1.10;;;13.30;99.90;;;;;;4956370;29;20059;-78
2024/03/27 09:07:08;;;;;;;1.42;1.27;;;13.40;99.90;;;;;;4939110;29;20072;-78
2024/03/27 09:09:34;;;;;;;2.83;1.10;;;13.40;99.90;;;;;;4956385;29;20074;-78
2024/03/27 09:11:59;;;;;;;4.30;1.55;;;13.40;99.90;;;;;;4938943;29;20491;-78
2024/03/27 09:14:26;;;;;;;2.15;1.15;;;13.40;99.90;;;;;;4956275;29;20106;-78
2024/03/27 09:16:53;;;;;;;1.80;1.27;;;13.40;99.90;;;;;;4939087;29;20034;-78
2024/03/27 09:19:19;;;;;;;3.63;1.17;;;13.50;99.90;;;;;;4939025;29;20028;-78
2024/03/27 09:21:45;;;;;;;2.95;1.70;;;13.50;99.90;;;;;;4938994;29;20419;-78
2024/03/27 09:24:13;;;;;;;5.07;2.38;;;13.50;99.90;;;;;;4955967;29;20077;-78
2024/03/27 09:26:39;;;;;;;3.42;1.90;;;13.40;99.90;;;;;;4955826;29;20066;-78
2024/03/27 09:29:06;;;;;;;5.68;1.30;;;13.50;99.90;;;;;;4956138;29;20062;-78
2024/03/27 09:31:32;;;;;;;5.88;1.35;;;13.50;99.90;;;;;;4955951;29;20027;-78
2024/03/27 09:33:58;;;;;;;1.83;1.35;;;13.50;99.90;;;;;;4955933;29;20090;-78
2024/03/27 09:36:24;;;;;;;1.50;0.70;;;13.50;99.90;;;;;;4955886;29;20030;-78
2024/03/27 09:38:49;;;;;;;0.82;0.82;;;13.40;99.90;;;;;;4955934;29;20028;-78
2024/03/27 09:41:15;;;;;;;4.22;1.20;;;13.40;99.90;;;;;;4955783;29;20077;-78
2024/03/27 09:43:44;;;;;;;4.05;1.40;;;13.40;99.90;;;;;;4930489;29;20028;-78
2024/03/27 09:46:10;;;;;;;1.92;0.90;;;13.40;99.90;;;;;;4935337;29;20047;-77
2024/03/27 09:48:42;;;;;;;5.60;1.60;;;13.40;99.90;;;;;;4955808;29;20514;-77
2024/03/27 09:51:08;;;;;;;1.90;0.93;;;13.30;99.90;;;;;;4952134;29;20030;-77
2024/03/27 09:53:43;;;;;;;3.42;1.33;;;13.20;99.90;;;;;;4934679;29;20067;-77
2024/03/27 09:56:09;;;;;;;2.58;1.15;;;13.10;99.90;;;;;;4938175;29;20613;-77
2024/03/27 09:58:35;;;;;;;2.83;0.80;;;13.00;99.90;;;;;;4938271;29;20031;-77
2024/03/27 10:01:04;;;;;;;1.10;0.73;;;12.90;99.90;;;;;;4955552;29;20020;-77
2024/03/27 10:03:30;;;;;;;3.55;1.23;;;12.80;99.90;;;;;;4935076;29;20031;-77
2024/03/27 10:05:58;;;;;;;3.67;1.33;;;12.80;99.90;;;;;;4951599;29;20050;-77
2024/03/27 10:08:27;;;;;;;2.47;0.77;;;12.80;99.90;;;;;;4935002;29;20063;-77
2024/03/27 10:10:57;;;;;;;2.47;0.80;;;12.80;99.90;;;;;;4930955;29;20020;-76
2024/03/27 10:13:27;;;;;;;1.35;0.70;;;12.80;99.90;;;;;;4931230;29;20158;-76
2024/03/27 10:15:53;;;;;;;2.30;0.98;;;12.80;99.90;;;;;;4931890;29;20027;-76
2024/03/27 10:18:19;;;;;;;3.33;1.13;;;12.80;99.90;;;;;;4955075;29;20689;-76
2024/03/27 10:20:46;;;;;;;1.23;0.70;;;12.80;99.90;;;;;;4955022;29;20031;-76
2024/03/27 10:23:12;;;;;;;0.85;0.85;;;12.80;99.90;;;;;;4955192;29;20090;-76
2024/03/27 10:25:39;;;;;;;7.57;1.38;;;12.80;99.90;;;;;;4950323;29;20027;-76
2024/03/27 10:28:06;;;;;;;1.42;0.93;;;12.80;99.90;;;;;;4954254;29;20129;-77
2024/03/27 10:30:32;;;;;;;3.53;1.20;;;12.80;99.90;;;;;;4954970;29;20051;-77
2024/03/27 10:32:58;;;;;;;3.95;1.10;;;12.80;99.90;;;;;;4954957;29;20054;-77
2024/03/27 10:35:37;;;;;;;2.30;1.10;;;12.80;99.90;;;;;;4937354;29;20055;-78
2024/03/27 10:38:04;;;;;;;3.00;1.40;;;12.80;99.90;;;;;;4937656;29;20035;-78
2024/03/27 10:40:31;;;;;;;5.47;1.10;;;12.80;99.90;;;;;;4937462;29;20094;-78
2024/03/27 10:43:14;;;;;;;1.70;1.15;;;12.70;99.90;;;;;;4950843;29;20082;-78
2024/03/27 10:45:42;;;;;;;3.25;1.30;;;12.70;99.90;;;;;;4952448;29;20058;-78
2024/03/27 10:48:09;;;;;;;3.13;1.05;;;12.60;99.90;;;;;;4954662;29;20031;-79
2024/03/27 10:50:37;;;;;;;2.67;0.80;;;12.70;99.90;;;;;;4937398;29;20037;-79
2024/03/27 10:53:05;;;;;;;4.35;1.52;;;12.70;99.90;;;;;;4954525;29;20030;-79
2024/03/27 10:55:36;;;;;;;1.77;1.50;;;12.70;99.90;;;;;;4954489;29;20090;-78
2024/03/27 10:58:03;;;;;;;3.80;1.27;;;12.70;99.90;;;;;;4937356;29;20027;-78
2024/03/27 11:00:30;;;;;;;1.42;0.95;;;12.70;99.90;;;;;;4954475;29;20027;-78
2024/03/27 11:02:57;;;;;;;5.20;1.20;;;12.80;99.90;;;;;;4954314;29;20493;-78
2024/03/27 11:05:28;;;;;;;2.28;1.15;;;12.80;99.90;;;;;;4945194;29;20054;-78
2024/03/27 11:07:56;;;;;;;2.08;1.10;;;12.80;99.90;;;;;;4937919;29;20035;-79
2024/03/27 11:10:23;;;;;;;3.58;1.50;;;12.80;99.90;;;;;;4955367;29;20020;-78
2024/03/27 11:12:49;;;;;;;1.75;1.33;;;12.80;99.90;;;;;;4955226;29;20027;-78
2024/03/27 11:15:16;;;;;;;2.83;0.98;;;12.80;99.90;;;;;;4955234;29;20039;-78
2024/03/27 11:17:55;;;;;;;1.73;1.00;;;12.80;99.90;;;;;;4955367;29;20524;-79
2024/03/27 11:20:26;;;;;;;1.10;0.80;;;12.80;99.90;;;;;;4955325;29;20395;-78
2024/03/27 11:22:53;;;;;;;1.42;0.98;;;12.80;99.90;;;;;;4954050;28;20023;-78
2024/03/27 11:25:26;;;;;;;1.67;0.85;;;12.80;99.90;;;;;;4936904;29;20031;-78
2024/03/27 11:27:52;;;;;;;1.85;1.10;;;12.80;99.90;;;;;;4954175;29;20027;-78
2024/03/27 11:30:21;;;;;;;1.08;0.98;;;12.80;99.90;;;;;;4936945;29;20509;-78
2024/03/27 11:32:49;;;;;;;0.85;0.85;;;12.80;99.90;;;;;;4936966;29;20028;-78
2024/03/27 11:35:17;;;;;;;1.05;0.95;;;12.80;99.90;;;;;;4953777;29;20051;-78
2024/03/27 11:37:43;;;;;;;2.85;1.08;;;12.80;99.90;;;;;;4943668;29;20849;-78
2024/03/27 11:40:09;;;;;;;2.17;1.20;;;12.80;99.90;;;;;;4930679;29;20114;-78
2024/03/27 11:42:36;;;;;;;0.80;0.80;;;12.80;99.90;;;;;;4933057;29;20040;-78
2024/03/27 11:45:08;;;;;;;1.38;0.93;;;12.80;99.90;;;;;;4952994;29;20027;-78
2024/03/27 11:47:34;;;;;;;;;;;12.80;99.90;;;;;;4936837;29;20038;-78
2024/03/27 11:50:00;;;;;;;2.28;1.70;;;12.80;99.90;;;;;;4953812;29;19906;-78
2024/03/27 11:52:26;;;;;;;3.35;1.50;;;12.80;99.90;;;;;;4936323;29;20026;-78
2024/03/27 11:54:55;;;;;;;2.83;1.70;;;12.80;99.90;;;;;;4936323;29;20443;-78
2024/03/27 11:57:21;;;;;;;3.38;1.45;;;12.80;99.90;;;;;;4953627;29;20506;-78
2024/03/27 11:59:47;;;;;;;2.35;1.80;;;12.80;99.90;;;;;;4932360;29;20031;-78
2024/03/27 12:02:14;;;;;;;3.70;1.70;;;12.80;99.90;;;;;;4936278;29;20023;-78
2024/03/27 12:04:40;;;;;;;2.50;1.98;;;12.80;99.90;;;;;;4953306;29;20039;-78
2024/03/27 12:07:06;;;;;;;2.47;2.10;;;12.80;99.90;;;;;;4953229;29;20439;-78
2024/03/27 12:09:41;;;;;;;4.38;2.63;;;12.80;99.90;;;;;;4953478;29;20369;-79
2024/03/27 12:12:06;;;;;;;2.30;1.98;;;12.80;99.90;;;;;;4953394;29;20074;-78
2024/03/27 12:14:32;;;;;;;3.22;2.08;;;12.80;99.90;;;;;;4953334;29;20395;-78
2024/03/27 12:17:10;;;;;;;3.60;2.22;;;12.80;99.90;;;;;;4953327;29;20027;-78
2024/03/27 12:19:36;;;;;;;5.80;2.70;;;12.80;99.90;;;;;;4953248;29;20038;-78
2024/03/27 12:22:02;;;;;;;4.18;2.38;;;12.80;99.90;;;;;;4933866;29;20032;-78
2024/03/27 12:24:28;;;;;;;4.28;2.83;;;12.80;99.90;;;;;;4953221;29;20499;-78
2024/03/27 12:26:54;;;;;;;3.47;3.00;;;12.80;99.90;;;;;;4935887;29;20063;-78
2024/03/27 12:29:19;;;;;;;3.22;2.63;;;12.70;99.90;;;;;;4950144;29;20090;-78
2024/03/27 12:31:49;;;;;;;6.55;3.10;;;12.70;99.90;;;;;;4936090;29;20019;-78
2024/03/27 12:34:15;;;;;;;2.65;2.45;;;12.70;99.90;;;;;;4936637;29;20313;-78
2024/03/27 12:36:41;;;;;;;5.20;3.17;;;12.70;99.90;;;;;;4939902;29;20114;-78
2024/03/27 12:39:07;;;;;;;5.30;2.95;;;12.70;99.90;;;;;;4953325;29;20031;-78
2024/03/27 12:41:32;;;;;;;6.10;3.20;;;12.80;99.90;;;;;;4957035;29;20066;-78
2024/03/27 12:43:58;;;;;;;6.82;3.45;;;12.70;99.90;;;;;;4939292;29;20248;-78
2024/03/27 12:46:24;;;;;;;6.15;3.70;;;12.80;99.90;;;;;;4956655;29;20101;-78